createdAt,value
2022-10-25T00:01:29.764Z,3.65
2022-10-25T00:03:56.670Z,3.20
2022-10-25T00:06:23.406Z,3.83
2022-10-25T00:08:50.149Z,3.53
2022-10-25T00:11:25.475Z,2.72
2022-10-25T00:13:53.415Z,3.47
2022-10-25T00:16:23.519Z,3.92
2022-10-25T00:18:50.436Z,3.38
2022-10-25T00:21:17.440Z,3.15
2022-10-25T00:23:44.095Z,2.80
2022-10-25T00:26:11.795Z,2.28
2022-10-25T00:28:38.736Z,2.83
2022-10-25T00:31:08.178Z,3.00
2022-10-25T00:33:36.490Z,3.10
2022-10-25T00:36:07.851Z,3.05
2022-10-25T00:38:34.630Z,2.58
2022-10-25T00:41:01.613Z,2.67
2022-10-25T00:43:44.473Z,2.90
2022-10-25T00:46:20.546Z,2.25
2022-10-25T00:48:58.769Z,3.10
2022-10-25T00:51:56.311Z,2.92
2022-10-25T00:54:31.678Z,2.65
2022-10-25T00:57:00.221Z,1.77
2022-10-25T00:59:27.189Z,2.00
2022-10-25T01:01:57.641Z,2.10
2022-10-25T01:04:29.320Z,2.25
2022-10-25T01:06:55.999Z,2.47
2022-10-25T01:09:25.726Z,2.45
2022-10-25T01:11:52.952Z,1.88
2022-10-25T01:14:19.911Z,2.00
2022-10-25T01:17:04.727Z,1.70
2022-10-25T01:19:58.675Z,1.40
2022-10-25T01:22:55.706Z,2.75
2022-10-25T01:25:46.039Z,2.60
2022-10-25T01:28:20.999Z,2.30
2022-10-25T01:31:19.857Z,2.15
2022-10-25T01:34:02.591Z,2.38
2022-10-25T01:36:58.576Z,2.60
2022-10-25T01:39:47.902Z,2.50
2022-10-25T01:42:28.515Z,1.80
2022-10-25T01:45:11.141Z,1.75
2022-10-25T01:47:59.399Z,1.40
2022-10-25T01:50:32.770Z,2.03
2022-10-25T01:52:59.424Z,1.50
2022-10-25T01:55:38.907Z,2.08
2022-10-25T01:58:23.989Z,1.33
2022-10-25T02:01:13.695Z,1.38
2022-10-25T02:03:50.463Z,1.63
2022-10-25T02:06:28.632Z,1.65
2022-10-25T02:09:01.463Z,1.52
2022-10-25T02:11:32.191Z,2.03
2022-10-25T02:14:21.846Z,1.48
2022-10-25T02:16:57.589Z,1.85
2022-10-25T02:19:29.521Z,1.75
2022-10-25T02:21:57.266Z,1.38
2022-10-25T02:24:26.542Z,1.50
2022-10-25T02:26:55.951Z,1.30
2022-10-25T02:29:22.965Z,1.58
2022-10-25T02:31:49.607Z,1.85
2022-10-25T02:34:16.221Z,1.40
2022-10-25T02:36:42.798Z,1.55
2022-10-25T02:39:09.441Z,1.70
2022-10-25T02:41:36.135Z,1.90
2022-10-25T02:44:02.733Z,1.70
2022-10-25T02:46:29.405Z,1.75
2022-10-25T02:48:56.010Z,1.60
2022-10-25T02:51:23.126Z,1.10
2022-10-25T02:53:50.124Z,1.73
2022-10-25T02:56:21.711Z,1.55
2022-10-25T02:58:49.939Z,1.92
2022-10-25T03:01:18.195Z,1.55
2022-10-25T03:03:45.796Z,1.75
2022-10-25T03:06:12.538Z,1.42
2022-10-25T03:08:40.458Z,1.30
2022-10-25T03:11:08.225Z,1.73
2022-10-25T03:13:35.574Z,1.50
2022-10-25T03:16:02.298Z,1.67
2022-10-25T03:18:28.985Z,1.73
2022-10-25T03:20:59.796Z,1.63
2022-10-25T03:23:27.102Z,1.45
2022-10-25T03:25:54.962Z,1.30
2022-10-25T03:28:21.806Z,1.38
2022-10-25T03:30:48.650Z,1.80
2022-10-25T03:33:15.475Z,1.33
2022-10-25T03:35:42.207Z,1.73
2022-10-25T03:38:08.852Z,1.80
2022-10-25T03:40:35.439Z,1.27
2022-10-25T03:43:02.054Z,2.05
2022-10-25T03:45:28.651Z,2.15
2022-10-25T03:47:55.318Z,1.42
2022-10-25T03:50:21.966Z,2.33
2022-10-25T03:52:48.627Z,2.03
2022-10-25T03:55:15.283Z,1.30
2022-10-25T03:57:41.898Z,1.85
2022-10-25T04:00:09.316Z,1.65
2022-10-25T04:02:39.089Z,1.60
2022-10-25T04:05:06.100Z,1.67
2022-10-25T04:07:32.740Z,1.75
2022-10-25T04:09:59.406Z,2.00
2022-10-25T04:12:31.616Z,1.67
2022-10-25T04:14:58.265Z,1.65
2022-10-25T04:17:24.873Z,1.70
2022-10-25T04:19:51.664Z,1.55
2022-10-25T04:22:18.280Z,1.73
2022-10-25T04:24:44.878Z,1.77
2022-10-25T04:27:11.600Z,2.63
2022-10-25T04:29:38.224Z,2.60
2022-10-25T04:32:06.047Z,1.60
2022-10-25T04:34:32.720Z,1.77
2022-10-25T04:36:59.352Z,1.85
2022-10-25T04:39:26.341Z,1.52
2022-10-25T04:41:52.974Z,1.90
2022-10-25T04:44:19.599Z,2.00
2022-10-25T04:46:48.647Z,1.63
2022-10-25T04:49:15.966Z,1.45
2022-10-25T04:51:42.603Z,1.70
2022-10-25T04:54:09.315Z,2.28
2022-10-25T04:56:35.883Z,1.67
2022-10-25T04:59:02.503Z,1.50
2022-10-25T05:01:29.309Z,2.03
2022-10-25T05:03:56.107Z,2.00
2022-10-25T05:06:28.221Z,1.90
2022-10-25T05:08:55.430Z,2.35
2022-10-25T05:11:24.088Z,2.40
2022-10-25T05:13:52.231Z,2.60
2022-10-25T05:16:23.719Z,2.72
2022-10-25T05:18:52.003Z,2.97
2022-10-25T05:21:18.788Z,3.08
2022-10-25T05:23:46.028Z,2.40
2022-10-25T05:26:18.191Z,2.03
2022-10-25T05:28:46.449Z,2.65
2022-10-25T05:31:24.099Z,3.05
2022-10-25T05:33:52.728Z,2.88
2022-10-25T05:36:19.487Z,2.95
2022-10-25T05:38:46.297Z,2.65
2022-10-25T05:41:14.497Z,2.10
2022-10-25T05:43:41.378Z,2.95
2022-10-25T05:46:10.863Z,2.85
2022-10-25T05:48:38.875Z,2.92
2022-10-25T05:51:33.379Z,3.15
2022-10-25T05:54:05.822Z,3.00
2022-10-25T05:56:35.090Z,3.47
2022-10-25T05:59:08.753Z,2.60
2022-10-25T06:01:37.328Z,2.85
2022-10-25T06:04:04.141Z,2.60
2022-10-25T06:06:30.782Z,3.22
2022-10-25T06:08:58.479Z,2.85
2022-10-25T06:11:25.899Z,3.60
2022-10-25T06:13:52.687Z,3.22
2022-10-25T06:16:20.575Z,3.40
2022-10-25T06:18:47.402Z,3.45
2022-10-25T06:21:16.287Z,2.95
2022-10-25T06:23:43.448Z,3.28
2022-10-25T06:26:12.162Z,3.30
2022-10-25T06:28:39.382Z,4.18
2022-10-25T06:31:08.669Z,3.78
2022-10-25T06:33:35.443Z,3.45
2022-10-25T06:36:04.449Z,2.90
2022-10-25T06:38:31.694Z,3.03
2022-10-25T06:41:03.214Z,3.05
2022-10-25T06:43:30.371Z,3.58
2022-10-25T06:45:57.240Z,3.05
2022-10-25T06:48:24.415Z,3.38
2022-10-25T06:51:10.449Z,3.25
2022-10-25T06:53:37.690Z,3.00
2022-10-25T06:56:14.384Z,2.85
2022-10-25T06:58:41.457Z,3.10
2022-10-25T07:01:11.037Z,3.30
2022-10-25T07:03:41.001Z,2.53
2022-10-25T07:06:09.751Z,3.30
2022-10-25T07:08:38.126Z,3.38
2022-10-25T07:11:05.126Z,2.85
2022-10-25T07:13:32.850Z,2.90
2022-10-25T07:16:04.215Z,3.00
2022-10-25T07:18:31.558Z,2.63
2022-10-25T07:21:02.741Z,2.92
2022-10-25T07:23:29.768Z,3.47
2022-10-25T07:25:57.044Z,3.00
2022-10-25T07:28:26.319Z,3.30
2022-10-25T07:30:53.265Z,3.10
2022-10-25T07:33:20.413Z,3.10
2022-10-25T07:36:06.016Z,3.28
2022-10-25T07:38:36.810Z,3.10
2022-10-25T07:41:03.677Z,2.92
2022-10-25T07:43:30.383Z,3.40
2022-10-25T07:45:57.201Z,2.95
2022-10-25T07:48:23.807Z,3.08
2022-10-25T07:50:50.550Z,3.17
2022-10-25T07:53:17.376Z,2.53
2022-10-25T07:55:50.231Z,2.53
2022-10-25T07:58:16.952Z,2.92
2022-10-25T08:00:43.573Z,2.97
2022-10-25T08:03:10.247Z,3.38
2022-10-25T08:05:36.919Z,2.60
2022-10-25T08:08:05.420Z,2.72
2022-10-25T08:10:32.522Z,3.38
2022-10-25T08:13:00.634Z,2.95
2022-10-25T08:15:27.693Z,3.33
2022-10-25T08:18:01.722Z,3.00
2022-10-25T08:20:43.323Z,4.07
2022-10-25T08:23:18.097Z,3.10
2022-10-25T08:25:44.899Z,4.10
2022-10-25T08:28:11.776Z,3.42
2022-10-25T08:30:39.781Z,3.65
2022-10-25T08:33:11.199Z,3.55
2022-10-25T08:35:39.448Z,3.50
2022-10-25T08:38:06.407Z,3.90
2022-10-25T08:40:55.091Z,3.95
2022-10-25T08:43:40.629Z,3.88
2022-10-25T08:46:19.151Z,3.83
2022-10-25T08:48:50.279Z,3.67
2022-10-25T08:51:26.205Z,3.38
2022-10-25T08:56:27.460Z,3.60
2022-10-25T08:59:01.841Z,3.63
2022-10-25T09:01:35.977Z,3.78
2022-10-25T09:04:02.700Z,3.55
2022-10-25T09:06:43.407Z,3.65
2022-10-25T09:09:25.574Z,3.33
2022-10-25T09:12:16.724Z,3.17
2022-10-25T09:15:13.093Z,3.20
2022-10-25T09:17:49.371Z,3.13
2022-10-25T09:20:37.748Z,3.00
2022-10-25T09:23:31.436Z,2.85
2022-10-25T09:26:12.334Z,2.47
2022-10-25T09:29:01.492Z,2.75
2022-10-25T09:31:30.594Z,2.65
2022-10-25T09:34:03.967Z,2.65
2022-10-25T09:36:36.306Z,2.25
2022-10-25T09:39:14.950Z,2.72
2022-10-25T09:41:45.696Z,2.53
2022-10-25T09:44:18.374Z,2.70
2022-10-25T09:46:51.467Z,3.03
2022-10-25T09:49:43.057Z,3.05
2022-10-25T09:52:21.782Z,3.05
2022-10-25T09:55:05.330Z,3.60
2022-10-25T09:57:31.945Z,3.20
2022-10-25T09:59:58.617Z,2.97
2022-10-25T10:02:27.128Z,3.10
2022-10-25T10:04:54.091Z,2.95
2022-10-25T10:07:34.166Z,3.20
2022-10-25T10:10:03.957Z,3.05
2022-10-25T10:12:39.468Z,2.92
2022-10-25T10:15:20.098Z,3.13
2022-10-25T10:17:47.574Z,2.90
2022-10-25T10:20:14.690Z,2.65
2022-10-25T10:22:50.839Z,2.90
2022-10-25T10:25:24.516Z,3.03
2022-10-25T10:27:54.048Z,3.15
2022-10-25T10:30:26.571Z,2.80
2022-10-25T10:32:57.500Z,2.67
2022-10-25T10:35:37.487Z,3.10
2022-10-25T10:38:23.537Z,2.90
2022-10-25T10:40:57.340Z,3.30
2022-10-25T10:43:31.232Z,3.47
2022-10-25T10:46:03.159Z,3.28
2022-10-25T10:48:36.716Z,3.08
2022-10-25T10:51:15.428Z,3.33
2022-10-25T10:53:52.855Z,2.88
2022-10-25T10:56:23.061Z,3.13
2022-10-25T10:59:04.032Z,2.53
2022-10-25T11:01:33.355Z,2.38
2022-10-25T11:04:01.306Z,3.00
2022-10-25T11:06:34.379Z,2.00
2022-10-25T11:09:24.896Z,1.67
2022-10-25T11:12:18.818Z,1.90
2022-10-25T11:14:45.457Z,2.00
2022-10-25T11:17:25.513Z,2.33
2022-10-25T11:20:08.046Z,2.40
2022-10-25T11:22:38.347Z,2.05
2022-10-25T11:25:44.394Z,1.27
2022-10-25T11:28:43.979Z,2.10
2022-10-25T11:31:43.869Z,1.90
2022-10-25T11:34:41.574Z,1.70
2022-10-25T11:37:22.883Z,1.58
2022-10-25T11:40:17.487Z,1.48
2022-10-25T11:43:05.874Z,2.00
2022-10-25T11:45:39.572Z,2.70
2022-10-25T11:48:16.011Z,2.47
2022-10-25T11:50:49.485Z,2.78
2022-10-25T11:53:26.515Z,1.70
2022-10-25T11:55:57.570Z,2.15
2022-10-25T11:58:33.931Z,2.38
2022-10-25T12:01:00.541Z,2.13
2022-10-25T12:04:12.134Z,2.50
2022-10-25T12:06:46.268Z,2.40
2022-10-25T12:09:31.548Z,2.28
2022-10-25T12:12:08.986Z,2.05
2022-10-25T12:14:39.611Z,2.50
2022-10-25T12:17:24.809Z,2.25
2022-10-25T12:19:55.137Z,1.80
2022-10-25T12:22:32.887Z,1.30
2022-10-25T12:25:03.184Z,2.05
2022-10-25T12:27:30.663Z,1.50
2022-10-25T12:30:07.610Z,0.85
2022-10-25T12:32:39.130Z,1.38
2022-10-25T12:35:17.615Z,1.30
2022-10-25T12:37:55.108Z,1.70
2022-10-25T12:40:26.346Z,1.55
2022-10-25T12:42:55.535Z,1.83
2022-10-25T12:45:38.949Z,2.22
2022-10-25T12:48:48.087Z,1.80
2022-10-25T12:51:20.740Z,1.33
2022-10-25T12:54:02.536Z,1.80
2022-10-25T12:56:50.282Z,1.40
2022-10-25T12:59:44.759Z,1.48
2022-10-25T13:02:36.208Z,1.40
2022-10-25T13:05:11.640Z,1.55
2022-10-25T13:07:38.797Z,35.90
2022-10-25T13:10:20.611Z,2.38
2022-10-25T13:13:13.562Z,1.35
2022-10-25T13:15:50.862Z,2.17
2022-10-25T13:18:32.613Z,1.13
2022-10-25T13:21:04.758Z,1.30
2022-10-25T13:23:59.796Z,1.33
2022-10-25T13:26:30.589Z,1.48
2022-10-25T13:29:06.477Z,1.02
2022-10-25T13:31:36.102Z,1.15
2022-10-25T13:34:13.467Z,1.00
2022-10-25T13:36:57.070Z,2.78
2022-10-25T13:39:34.675Z,1.80
2022-10-25T13:42:16.555Z,1.48
2022-10-25T13:45:27.917Z,1.45
2022-10-25T13:47:56.341Z,1.13
2022-10-25T13:50:29.370Z,1.25
2022-10-25T13:53:05.004Z,0.90
2022-10-25T13:55:37.901Z,1.27
2022-10-25T13:58:31.935Z,1.20
2022-10-25T14:01:18.070Z,0.93
2022-10-25T14:04:06.088Z,0.95
2022-10-25T14:06:42.793Z,1.20
2022-10-25T14:09:36.542Z,1.10
2022-10-25T14:12:06.458Z,1.23
2022-10-25T14:15:08.118Z,1.10
2022-10-25T14:17:41.695Z,1.73
2022-10-25T14:20:21.554Z,1.00
2022-10-25T14:22:57.888Z,1.05
2022-10-25T14:25:50.223Z,1.50
2022-10-25T14:28:22.622Z,1.20
2022-10-25T14:30:57.735Z,1.20
2022-10-25T14:33:39.256Z,1.38
2022-10-25T14:36:27.008Z,1.58
2022-10-25T14:39:05.952Z,1.50
2022-10-25T14:41:41.049Z,1.27
2022-10-25T14:44:28.668Z,1.10
2022-10-25T14:46:56.859Z,1.42
2022-10-25T14:49:28.070Z,1.33
2022-10-25T14:52:09.106Z,1.20
2022-10-25T14:54:37.475Z,1.42
2022-10-25T14:57:09.088Z,2.10
2022-10-25T14:59:46.340Z,1.27
2022-10-25T15:02:34.213Z,1.55
2022-10-25T15:05:04.868Z,1.75
2022-10-25T15:07:43.242Z,1.50
2022-10-25T15:10:38.608Z,1.80
2022-10-25T15:13:15.073Z,2.05
2022-10-25T15:15:47.515Z,1.85
2022-10-25T15:18:27.202Z,1.80
2022-10-25T15:21:12.344Z,1.90
2022-10-25T15:23:43.585Z,2.38
2022-10-25T15:26:30.298Z,2.05
2022-10-25T15:28:59.556Z,2.28
2022-10-25T15:31:28.516Z,2.55
2022-10-25T15:34:05.638Z,1.80
2022-10-25T15:36:33.921Z,2.13
2022-10-25T15:39:09.283Z,2.80
2022-10-25T15:41:38.358Z,2.80
2022-10-25T15:44:05.324Z,2.50
2022-10-25T15:46:34.317Z,2.33
2022-10-25T15:49:09.505Z,2.80
2022-10-25T15:51:41.661Z,3.55
2022-10-25T15:54:19.525Z,3.50
2022-10-25T15:56:46.549Z,3.33
2022-10-25T15:59:13.657Z,3.58
2022-10-25T16:01:51.802Z,4.57
2022-10-25T16:04:20.038Z,3.90
2022-10-25T16:06:47.165Z,2.97
2022-10-25T16:09:14.167Z,3.20
2022-10-25T16:11:44.982Z,3.42
2022-10-25T16:14:25.685Z,4.13
2022-10-25T16:16:52.870Z,4.07
2022-10-25T16:19:21.884Z,3.90
2022-10-25T16:21:49.268Z,3.70
2022-10-25T16:24:15.988Z,3.45
2022-10-25T16:26:48.202Z,5.18
2022-10-25T16:29:15.972Z,3.33
2022-10-25T16:31:43.032Z,3.08
2022-10-25T16:34:10.321Z,3.08
2022-10-25T16:36:37.133Z,3.05
2022-10-25T16:39:04.834Z,3.05
2022-10-25T16:41:38.095Z,3.10
2022-10-25T16:44:04.955Z,2.80
2022-10-25T16:46:31.603Z,3.40
2022-10-25T16:49:01.100Z,3.45
2022-10-25T16:51:30.995Z,4.63
2022-10-25T16:54:00.199Z,4.05
2022-10-25T16:56:26.937Z,3.78
2022-10-25T16:58:53.676Z,4.07
2022-10-25T17:01:22.886Z,5.00
2022-10-25T17:03:54.771Z,4.65
2022-10-25T17:06:40.338Z,4.85
2022-10-25T17:09:07.807Z,5.72
2022-10-25T17:11:34.488Z,3.80
2022-10-25T17:14:01.128Z,4.50
2022-10-25T17:16:27.951Z,4.57
2022-10-25T17:18:54.989Z,4.50
2022-10-25T17:21:23.501Z,4.80
2022-10-25T17:23:50.151Z,7.25
2022-10-25T17:26:20.725Z,6.32
2022-10-25T17:28:48.096Z,5.90
2022-10-25T17:31:15.536Z,6.68
2022-10-25T17:33:43.003Z,5.55
2022-10-25T17:36:13.060Z,5.72
2022-10-25T17:38:40.394Z,6.10
2022-10-25T17:41:07.623Z,6.15
2022-10-25T17:43:35.509Z,6.47
2022-10-25T17:46:03.906Z,7.45
2022-10-25T17:48:30.972Z,7.00
2022-10-25T17:51:04.421Z,6.72
2022-10-25T17:53:31.495Z,7.43
2022-10-25T17:55:58.680Z,7.75
2022-10-25T17:58:25.305Z,7.80
2022-10-25T18:01:16.117Z,11.23
2022-10-25T18:03:43.310Z,10.55
2022-10-25T18:06:14.853Z,16.75
2022-10-25T18:08:56.912Z,16.33
2022-10-25T18:11:25.924Z,16.52
2022-10-25T18:13:54.097Z,9.35
2022-10-25T18:16:29.610Z,9.00
2022-10-25T18:19:07.102Z,8.75
2022-10-25T18:21:34.828Z,9.40
2022-10-25T18:24:12.287Z,13.75
2022-10-25T18:26:39.132Z,12.70
2022-10-25T18:29:08.523Z,13.15
2022-10-25T18:31:35.324Z,11.55
2022-10-25T18:34:04.471Z,14.07
2022-10-25T18:36:31.292Z,18.45
2022-10-25T18:39:05.112Z,10.88
2022-10-25T18:41:34.446Z,9.05
2022-10-25T18:44:03.968Z,10.15
2022-10-25T18:46:35.904Z,10.38
2022-10-25T18:49:02.798Z,10.30
2022-10-25T18:51:29.620Z,10.40
2022-10-25T18:54:02.026Z,9.45
2022-10-25T18:56:30.656Z,10.45
2022-10-25T18:59:17.541Z,9.98
2022-10-25T19:01:45.655Z,9.77
2022-10-25T19:04:13.456Z,10.40
2022-10-25T19:06:45.032Z,10.45
2022-10-25T19:09:14.500Z,9.73
2022-10-25T19:11:41.647Z,10.27
2022-10-25T19:14:11.084Z,11.18
2022-10-25T19:16:41.197Z,11.65
2022-10-25T19:19:10.885Z,10.20
2022-10-25T19:21:57.724Z,10.18
2022-10-25T19:24:24.699Z,10.98
2022-10-25T19:26:51.613Z,10.90
2022-10-25T19:29:19.680Z,10.95
2022-10-25T19:31:46.410Z,11.32
2022-10-25T19:34:18.959Z,12.40
2022-10-25T19:36:45.777Z,12.93
2022-10-25T19:39:38.265Z,10.55
2022-10-25T19:42:07.378Z,9.93
2022-10-25T19:44:33.980Z,10.52
2022-10-25T19:47:00.692Z,10.45
2022-10-25T19:49:30.035Z,10.80
2022-10-25T19:51:57.275Z,9.35
2022-10-25T19:54:24.059Z,10.95
2022-10-25T19:56:51.548Z,9.80
2022-10-25T19:59:18.220Z,9.98
2022-10-25T20:01:48.507Z,9.85
2022-10-25T20:04:15.310Z,9.98
2022-10-25T20:06:45.128Z,9.95
2022-10-25T20:09:12.642Z,9.52
2022-10-25T20:11:43.918Z,10.35
2022-10-25T20:14:10.674Z,9.57
2022-10-25T20:16:40.493Z,10.60
2022-10-25T20:19:07.516Z,9.40
2022-10-25T20:21:37.367Z,10.32
2022-10-25T20:24:11.622Z,10.18
2022-10-25T20:26:41.054Z,10.00
2022-10-25T20:29:21.224Z,9.88
2022-10-25T20:31:59.687Z,9.27
2022-10-25T20:34:27.630Z,10.07
2022-10-25T20:36:54.508Z,10.57
2022-10-25T20:39:23.717Z,9.27
2022-10-25T20:41:50.446Z,9.90
2022-10-25T20:44:18.055Z,9.93
2022-10-25T20:46:50.310Z,10.20
2022-10-25T20:49:17.814Z,9.95
2022-10-25T20:51:44.507Z,9.02
2022-10-25T20:54:13.072Z,9.05
2022-10-25T20:56:40.932Z,9.25
2022-10-25T20:59:07.767Z,9.82
2022-10-25T21:01:34.579Z,9.45
2022-10-25T21:04:01.473Z,8.88
2022-10-25T21:06:28.303Z,9.57
2022-10-25T21:08:55.017Z,10.13
2022-10-25T21:11:21.771Z,9.75
2022-10-25T21:14:00.603Z,11.07
2022-10-25T21:16:30.431Z,10.55
2022-10-25T21:19:03.192Z,11.32
2022-10-25T21:21:38.868Z,9.52
2022-10-25T21:24:05.922Z,9.10
2022-10-25T21:26:34.637Z,9.82
2022-10-25T21:29:01.512Z,9.23
2022-10-25T21:31:28.230Z,9.65
2022-10-25T21:33:59.310Z,9.57
2022-10-25T21:36:27.254Z,10.40
2022-10-25T21:38:54.064Z,11.85
2022-10-25T21:41:26.667Z,10.98
2022-10-25T21:43:54.498Z,11.10
2022-10-25T21:46:21.929Z,9.98
2022-10-25T21:48:50.654Z,9.25
2022-10-25T21:51:21.423Z,8.88
2022-10-25T21:56:19.844Z,7.90
2022-10-25T21:58:48.918Z,8.02
2022-10-25T22:01:20.532Z,8.07
2022-10-25T22:03:47.399Z,8.95
2022-10-25T22:06:22.917Z,7.20
2022-10-25T22:08:49.954Z,8.07
2022-10-25T22:11:21.890Z,7.85
2022-10-25T22:13:48.814Z,7.22
2022-10-25T22:16:19.371Z,7.75
2022-10-25T22:18:59.625Z,7.25
2022-10-25T22:21:31.765Z,7.65
2022-10-25T22:23:58.567Z,7.25
2022-10-25T22:26:26.871Z,7.57
2022-10-25T22:28:55.401Z,8.20
2022-10-25T22:31:22.271Z,7.18
2022-10-25T22:33:53.972Z,8.00
2022-10-25T22:36:21.517Z,7.22
2022-10-25T22:38:48.254Z,7.28
2022-10-25T22:41:22.958Z,7.22
2022-10-25T22:43:50.163Z,7.07
2022-10-25T22:46:24.927Z,7.20
2022-10-25T22:48:53.751Z,7.15
2022-10-25T22:51:21.375Z,7.72
2022-10-25T22:53:48.189Z,6.57
2022-10-25T22:56:18.701Z,6.75
2022-10-25T22:58:56.908Z,7.32
2022-10-25T23:01:25.580Z,6.90
2022-10-25T23:03:57.122Z,6.47
2022-10-25T23:06:26.641Z,6.45
2022-10-25T23:08:54.601Z,7.30
2022-10-25T23:11:27.803Z,6.70
2022-10-25T23:13:54.504Z,6.55
2022-10-25T23:16:21.698Z,7.72
2022-10-25T23:18:48.516Z,6.45
2022-10-25T23:21:19.240Z,7.72
2022-10-25T23:23:46.732Z,7.25
2022-10-25T23:26:19.960Z,7.97
2022-10-25T23:28:46.705Z,7.53
2022-10-25T23:31:13.908Z,6.70
2022-10-25T23:33:41.831Z,7.50
2022-10-25T23:36:16.316Z,6.43
2022-10-25T23:38:43.609Z,6.93
2022-10-25T23:41:10.463Z,7.47
2022-10-25T23:43:38.777Z,7.03
2022-10-25T23:46:06.370Z,7.50
2022-10-25T23:48:33.348Z,7.97
2022-10-25T23:51:05.632Z,6.38
2022-10-25T23:53:32.447Z,6.57
2022-10-25T23:56:03.572Z,7.05
2022-10-25T23:58:30.257Z,7.70
